Time;durP1;ratioP1;P1;durP2;ratioP2;P2;SDS_P1;SDS_P2;PMS_P1;PMS_P2;Temp;Humidity;BMP_temperature;BMP_pressure;BME280_temperature;BME280_humidity;BME280_pressure;Samples;Min_cycle;Max_cycle;Signal;HPM_P1;HPM_P2
2023/04/17 00:02:10;;;;;;;1.35;1.25;;;7.50;99.90;;;;;;4980251;28;20027;-77
2023/04/17 00:04:37;;;;;;;1.42;1.05;;;7.50;99.90;;;;;;4979176;28;20030;-78
2023/04/17 00:07:03;;;;;;;1.33;1.23;;;7.40;99.90;;;;;;4997479;28;20046;-77
2023/04/17 00:09:29;;;;;;;1.83;1.33;;;7.50;99.90;;;;;;4979092;28;20073;-78
2023/04/17 00:11:55;;;;;;;1.20;1.10;;;7.50;99.90;;;;;;4979346;28;20026;-77
2023/04/17 00:14:21;;;;;;;1.23;0.95;;;7.50;99.90;;;;;;4997372;28;20082;-77
2023/04/17 00:16:46;;;;;;;1.05;0.85;;;7.40;99.90;;;;;;4996799;28;20018;-77
2023/04/17 00:19:12;;;;;;;2.88;1.38;;;7.50;99.90;;;;;;4996162;28;20096;-78
2023/04/17 00:21:38;;;;;;;1.63;1.10;;;7.50;99.90;;;;;;4996718;28;20598;-77
2023/04/17 00:24:03;;;;;;;1.23;0.85;;;7.50;99.90;;;;;;4996757;28;20445;-76
2023/04/17 00:26:31;;;;;;;1.40;1.23;;;7.50;99.90;;;;;;4996638;28;20030;-77
2023/04/17 00:28:56;;;;;;;1.10;1.00;;;7.40;99.90;;;;;;4978871;28;20026;-76
2023/04/17 00:31:22;;;;;;;1.00;0.88;;;7.40;99.90;;;;;;4996794;28;20037;-76
2023/04/17 00:33:48;;;;;;;0.65;0.60;;;7.40;99.90;;;;;;4979332;28;20026;-76
2023/04/17 00:36:14;;;;;;;1.08;1.00;;;7.40;99.90;;;;;;4979446;28;20053;-76
2023/04/17 00:38:40;;;;;;;1.77;1.35;;;7.40;99.90;;;;;;4996096;28;20022;-77
2023/04/17 00:41:05;;;;;;;1.00;0.90;;;7.40;99.90;;;;;;4996666;28;20371;-77
2023/04/17 00:43:31;;;;;;;1.05;1.05;;;7.40;99.90;;;;;;4996626;28;20030;-77
2023/04/17 00:45:57;;;;;;;1.05;0.90;;;7.40;99.90;;;;;;4996266;28;20030;-78
2023/04/17 00:48:23;;;;;;;2.08;1.08;;;7.40;99.90;;;;;;4996110;28;20026;-77
2023/04/17 00:50:50;;;;;;;1.75;1.00;;;7.40;99.90;;;;;;4979338;28;20030;-78
2023/04/17 00:53:16;;;;;;;3.90;1.00;;;7.50;99.90;;;;;;4996703;28;20041;-77
2023/04/17 00:55:43;;;;;;;0.77;0.77;;;7.40;99.90;;;;;;4996263;28;20019;-77
2023/04/17 00:58:10;;;;;;;1.33;1.20;;;7.40;99.90;;;;;;4995432;28;20100;-76
2023/04/17 01:00:36;;;;;;;2.05;0.95;;;7.40;99.90;;;;;;4978484;28;20037;-76
2023/04/17 01:03:02;;;;;;;1.63;1.00;;;7.30;99.90;;;;;;4995351;28;20030;-77
2023/04/17 01:05:28;;;;;;;1.55;1.10;;;7.30;99.90;;;;;;4996122;28;20484;-77
2023/04/17 01:07:57;;;;;;;1.20;1.08;;;7.40;99.90;;;;;;4977583;28;20033;-77
2023/04/17 01:10:23;;;;;;;0.90;0.80;;;7.30;99.90;;;;;;4995945;28;20018;-77
2023/04/17 01:13:05;;;;;;;1.50;0.98;;;7.30;99.90;;;;;;4978357;28;20069;-77
2023/04/17 01:15:32;;;;;;;0.70;0.70;;;7.20;99.90;;;;;;4995385;28;20023;-76
2023/04/17 01:17:57;;;;;;;1.08;1.02;;;7.20;99.90;;;;;;4994884;28;20085;-76
2023/04/17 01:20:28;;;;;;;1.13;1.02;;;7.20;99.90;;;;;;4995604;28;20018;-75
2023/04/17 01:22:54;;;;;;;1.13;0.98;;;7.20;99.90;;;;;;4996204;28;20076;-78
2023/04/17 01:25:20;;;;;;;2.15;0.77;;;7.20;99.90;;;;;;4995033;28;20038;-77
2023/04/17 01:27:46;;;;;;;0.88;0.80;;;7.20;99.90;;;;;;4977677;28;20037;-76
2023/04/17 01:30:12;;;;;;;2.53;0.57;;;7.10;99.90;;;;;;4978113;28;20113;-76
2023/04/17 01:32:38;;;;;;;1.38;0.88;;;7.20;99.90;;;;;;4978437;28;20023;-76
2023/04/17 01:35:04;;;;;;;0.95;0.70;;;7.20;99.90;;;;;;4978042;28;20098;-78
2023/04/17 01:37:30;;;;;;;0.85;0.82;;;7.20;99.90;;;;;;4995649;28;20105;-77
2023/04/17 01:39:57;;;;;;;1.02;0.80;;;7.10;99.90;;;;;;4977584;28;20152;-77
2023/04/17 01:42:23;;;;;;;0.75;0.73;;;7.10;99.90;;;;;;4978089;28;20483;-77
2023/04/17 01:44:49;;;;;;;5.03;1.10;;;7.00;99.90;;;;;;4994004;28;20034;-77
2023/04/17 01:47:14;;;;;;;0.60;0.60;;;7.00;99.90;;;;;;4994775;28;20393;-76
2023/04/17 01:49:40;;;;;;;1.35;0.90;;;6.90;99.90;;;;;;4977980;28;20546;-76
2023/04/17 01:52:06;;;;;;;0.45;0.45;;;6.80;99.90;;;;;;4995210;28;20029;-78
2023/04/17 01:54:31;;;;;;;3.70;0.50;;;6.80;99.90;;;;;;4977351;28;20023;-75
2023/04/17 01:56:57;;;;;;;0.82;0.70;;;6.70;99.90;;;;;;4977719;28;20046;-77
2023/04/17 01:59:23;;;;;;;0.95;0.90;;;6.70;99.90;;;;;;4976583;28;20037;-76
2023/04/17 02:01:49;;;;;;;1.02;0.70;;;6.50;99.90;;;;;;4969539;28;20051;-75
2023/04/17 02:04:15;;;;;;;0.80;0.77;;;6.50;99.90;;;;;;4974895;28;20062;-76
2023/04/17 02:06:41;;;;;;;0.40;0.40;;;6.40;99.90;;;;;;4974829;28;20054;-76
2023/04/17 02:09:07;;;;;;;0.60;0.60;;;6.30;99.90;;;;;;4975130;28;20102;-75
2023/04/17 02:11:33;;;;;;;0.40;0.32;;;6.30;99.90;;;;;;4958054;28;20023;-76
2023/04/17 02:13:59;;;;;;;0.45;0.45;;;6.20;99.90;;;;;;4956671;28;20049;-76
2023/04/17 02:16:25;;;;;;;1.38;0.52;;;6.20;99.90;;;;;;4957521;28;20423;-77
2023/04/17 02:18:51;;;;;;;0.40;0.40;;;6.10;99.90;;;;;;4974167;28;20479;-76
2023/04/17 02:21:17;;;;;;;0.40;0.40;;;6.10;99.90;;;;;;4975101;28;20031;-78
2023/04/17 02:23:43;;;;;;;2.75;0.57;;;6.00;99.90;;;;;;4974583;28;20035;-78
2023/04/17 02:26:08;;;;;;;0.40;0.40;;;6.10;99.90;;;;;;4974211;28;20050;-77
2023/04/17 02:28:34;;;;;;;0.93;0.57;;;6.10;99.90;;;;;;4956793;28;20030;-77
2023/04/17 02:31:00;;;;;;;6.72;3.63;;;6.00;99.90;;;;;;4957743;28;20019;-76
2023/04/17 02:33:26;;;;;;;2.25;1.33;;;6.00;99.90;;;;;;4957370;28;20026;-77
2023/04/17 02:35:51;;;;;;;2.33;1.38;;;6.00;99.90;;;;;;4957279;28;20062;-75
2023/04/17 02:38:17;;;;;;;1.98;1.65;;;6.00;99.90;;;;;;4957023;28;20035;-77
2023/04/17 02:40:43;;;;;;;4.88;1.33;;;6.00;99.90;;;;;;4957062;28;20058;-76
2023/04/17 02:43:08;;;;;;;1.25;1.00;;;6.00;99.90;;;;;;4974479;28;20031;-76
2023/04/17 02:45:34;;;;;;;3.50;1.70;;;6.20;99.90;;;;;;4956460;28;20034;-77
2023/04/17 02:48:00;;;;;;;1.98;0.80;;;6.20;99.90;;;;;;4973900;28;20027;-75
2023/04/17 02:50:26;;;;;;;2.17;0.82;;;6.20;99.90;;;;;;4974507;28;20464;-78
2023/04/17 02:52:52;;;;;;;1.40;1.08;;;6.20;99.90;;;;;;4956607;28;20027;-78
2023/04/17 02:55:18;;;;;;;0.95;0.95;;;6.20;99.90;;;;;;4973552;28;20054;-77
2023/04/17 02:57:43;;;;;;;1.13;0.90;;;6.10;99.90;;;;;;4956443;28;20519;-77
2023/04/17 03:00:13;;;;;;;0.80;0.80;;;6.20;99.90;;;;;;4974169;28;20058;-77
2023/04/17 03:02:40;;;;;;;0.85;0.85;;;6.20;99.90;;;;;;4956684;28;20122;-77
2023/04/17 03:05:05;;;;;;;1.38;1.02;;;6.20;99.90;;;;;;4956620;28;20081;-76
2023/04/17 03:07:32;;;;;;;1.20;1.10;;;6.20;99.90;;;;;;4973851;28;20507;-76
2023/04/17 03:09:58;;;;;;;2.05;1.85;;;6.20;99.90;;;;;;4956812;28;20065;-76
2023/04/17 03:12:23;;;;;;;1.58;1.48;;;6.30;99.90;;;;;;4974045;28;20067;-76
2023/04/17 03:14:49;;;;;;;2.08;0.88;;;6.30;99.90;;;;;;4973513;28;20057;-76
2023/04/17 03:17:16;;;;;;;1.85;1.30;;;6.40;99.90;;;;;;4974007;28;20150;-76
2023/04/17 03:19:41;;;;;;;3.60;1.00;;;6.40;99.90;;;;;;4973932;28;20523;-77
2023/04/17 03:22:07;;;;;;;2.58;1.10;;;6.40;99.90;;;;;;4956418;28;20035;-77
2023/04/17 03:24:33;;;;;;;4.00;1.20;;;6.40;99.90;;;;;;4973561;28;20034;-77
2023/04/17 03:26:59;;;;;;;1.75;0.98;;;6.40;99.90;;;;;;4977684;28;20031;-78
2023/04/17 03:29:25;;;;;;;2.00;1.30;;;6.50;99.90;;;;;;4960127;28;20117;-77
2023/04/17 03:31:51;;;;;;;1.95;1.30;;;6.50;99.90;;;;;;4977407;28;20094;-78
2023/04/17 03:34:18;;;;;;;2.80;2.30;;;6.50;99.90;;;;;;4978259;28;20046;-77
2023/04/17 03:36:44;;;;;;;1.80;1.70;;;6.50;99.90;;;;;;4976177;28;20031;-78
2023/04/17 03:39:09;;;;;;;1.77;1.08;;;6.60;99.90;;;;;;4977862;28;20488;-78
2023/04/17 03:41:37;;;;;;;1.23;0.85;;;6.60;99.90;;;;;;4977107;28;20030;-78
2023/04/17 03:44:03;;;;;;;0.90;0.90;;;6.60;99.90;;;;;;4977234;28;20023;-77
2023/04/17 03:46:29;;;;;;;1.30;1.20;;;6.80;99.90;;;;;;4976594;28;20026;-77
2023/04/17 03:48:54;;;;;;;1.40;1.30;;;6.80;99.90;;;;;;4976409;28;20031;-76
2023/04/17 03:51:20;;;;;;;1.42;1.35;;;6.80;99.90;;;;;;4977722;28;20027;-78
2023/04/17 03:53:45;;;;;;;0.93;0.88;;;6.80;99.90;;;;;;4977377;28;20023;-77
2023/04/17 03:56:11;;;;;;;2.00;1.48;;;6.80;99.90;;;;;;4976436;28;20537;-78
2023/04/17 03:58:37;;;;;;;2.47;1.60;;;6.80;99.90;;;;;;4976570;28;20432;-78
2023/04/17 04:01:03;;;;;;;1.67;1.00;;;6.80;99.90;;;;;;4960267;28;20033;-78
2023/04/17 04:03:29;;;;;;;1.10;1.00;;;6.70;99.90;;;;;;4959544;28;20027;-76
2023/04/17 04:05:55;;;;;;;1.95;1.30;;;6.70;99.90;;;;;;4959056;28;20031;-78
2023/04/17 04:08:21;;;;;;;1.08;0.98;;;6.70;99.90;;;;;;4976869;28;20030;-78
2023/04/17 04:10:46;;;;;;;1.67;1.23;;;6.70;99.90;;;;;;4976411;28;20146;-77
2023/04/17 04:13:12;;;;;;;1.67;1.45;;;6.70;99.90;;;;;;4976383;28;20030;-78
2023/04/17 04:15:38;;;;;;;1.27;1.17;;;6.70;99.90;;;;;;4958699;28;20032;-77
2023/04/17 04:18:04;;;;;;;1.70;1.33;;;6.90;99.90;;;;;;4975855;28;20065;-77
2023/04/17 04:20:30;;;;;;;2.65;1.50;;;6.60;99.90;;;;;;4978350;28;20113;-78
2023/04/17 04:22:56;;;;;;;1.67;1.38;;;6.70;99.90;;;;;;4976778;28;20061;-77
2023/04/17 04:25:22;;;;;;;1.25;1.15;;;6.70;99.90;;;;;;4976155;28;20467;-78
2023/04/17 04:27:48;;;;;;;1.65;1.17;;;6.60;99.90;;;;;;4958616;28;20451;-79
2023/04/17 04:30:15;;;;;;;2.67;1.02;;;6.60;99.90;;;;;;4976266;28;20019;-77
2023/04/17 04:32:44;;;;;;;0.60;0.60;;;6.60;99.90;;;;;;4976290;28;20484;-77
2023/04/17 04:35:14;;;;;;;1.30;0.98;;;6.60;99.90;;;;;;4959009;28;20026;-78
2023/04/17 04:37:41;;;;;;;1.50;1.35;;;6.60;99.90;;;;;;4958162;28;20037;-77
2023/04/17 04:40:09;;;;;;;1.40;1.30;;;6.60;99.90;;;;;;4976165;28;20055;-77
2023/04/17 04:42:36;;;;;;;2.60;1.20;;;6.70;99.90;;;;;;4959027;28;20029;-77
2023/04/17 04:45:03;;;;;;;2.95;0.90;;;6.70;99.90;;;;;;4958734;28;20035;-77
2023/04/17 04:47:29;;;;;;;1.75;1.30;;;6.70;99.90;;;;;;4958258;28;20089;-77
2023/04/17 04:49:55;;;;;;;1.52;1.00;;;6.70;99.90;;;;;;4976002;28;20019;-77
2023/04/17 04:52:21;;;;;;;4.10;2.65;;;6.80;99.90;;;;;;4976236;28;20490;-77
2023/04/17 04:54:46;;;;;;;6.50;3.45;;;6.80;99.90;;;;;;4976361;28;20034;-77
2023/04/17 04:57:12;;;;;;;2.92;2.47;;;6.80;99.90;;;;;;4958393;28;20027;-78
2023/04/17 04:59:37;;;;;;;1.50;1.10;;;6.90;99.90;;;;;;4958147;28;20483;-76
2023/04/17 05:02:03;;;;;;;2.15;1.38;;;6.90;99.90;;;;;;4958664;28;20038;-78
2023/04/17 05:04:29;;;;;;;1.27;1.17;;;7.00;99.90;;;;;;4957975;28;20090;-78
2023/04/17 05:06:55;;;;;;;2.88;1.90;;;7.10;99.90;;;;;;4975777;28;20468;-78
2023/04/17 05:09:21;;;;;;;2.40;1.13;;;7.10;99.90;;;;;;4958344;28;20459;-77
2023/04/17 05:11:47;;;;;;;1.88;1.15;;;7.20;99.90;;;;;;4958255;28;20034;-78
2023/04/17 05:14:12;;;;;;;2.88;0.80;;;7.20;99.90;;;;;;4958096;28;20023;-77
2023/04/17 05:16:39;;;;;;;1.67;1.00;;;7.30;99.90;;;;;;4957408;28;20027;-78
2023/04/17 05:19:05;;;;;;;1.20;0.98;;;7.30;99.90;;;;;;4974972;28;20030;-77
2023/04/17 05:21:31;;;;;;;0.85;0.85;;;7.40;99.90;;;;;;4975748;28;20041;-78
2023/04/17 05:23:56;;;;;;;1.20;1.10;;;7.50;99.90;;;;;;4975314;28;20027;-78
2023/04/17 05:26:22;;;;;;;2.17;1.58;;;7.60;99.90;;;;;;4975237;28;20030;-78
2023/04/17 05:28:48;;;;;;;0.90;0.90;;;7.70;99.90;;;;;;4974210;28;20113;-77
2023/04/17 05:31:14;;;;;;;2.75;2.50;;;8.20;99.90;;;;;;4975031;28;20033;-77
2023/04/17 05:33:40;;;;;;;2.83;1.80;;;8.50;99.90;;;;;;4975126;28;20019;-78
2023/04/17 05:36:06;;;;;;;2.15;1.80;;;8.30;99.90;;;;;;4976217;28;20030;-77
2023/04/17 05:38:32;;;;;;;1.67;1.23;;;8.20;99.90;;;;;;4986147;28;20034;-79
2023/04/17 05:40:58;;;;;;;1.88;1.55;;;8.30;99.90;;;;;;4994053;28;20053;-77
2023/04/17 05:43:23;;;;;;;1.67;1.58;;;8.30;99.90;;;;;;4994229;28;20058;-78
2023/04/17 05:45:49;;;;;;;1.65;1.55;;;8.40;99.90;;;;;;4976511;28;20031;-78
2023/04/17 05:48:15;;;;;;;3.15;1.35;;;8.40;99.90;;;;;;4976103;28;20109;-77
2023/04/17 05:50:41;;;;;;;6.25;2.28;;;8.70;99.90;;;;;;4976713;28;20053;-77
2023/04/17 05:53:06;;;;;;;2.47;1.70;;;8.80;99.90;;;;;;4994047;28;20019;-78
2023/04/17 05:55:32;;;;;;;3.22;1.70;;;9.00;99.90;;;;;;4991701;28;20470;-77
2023/04/17 05:57:58;;;;;;;1.67;1.58;;;9.10;99.90;;;;;;4993514;28;20109;-79
2023/04/17 06:00:23;;;;;;;2.03;1.65;;;9.20;99.90;;;;;;4994078;28;20033;-76
2023/04/17 06:02:50;;;;;;;1.60;1.50;;;9.20;99.90;;;;;;4976409;28;20026;-78
2023/04/17 06:05:16;;;;;;;1.95;1.63;;;9.30;99.90;;;;;;4975828;28;20141;-78
2023/04/17 06:07:42;;;;;;;1.63;1.52;;;9.40;99.90;;;;;;4992842;28;20503;-78
2023/04/17 06:10:09;;;;;;;1.50;1.40;;;9.50;99.90;;;;;;4994108;28;20030;-77
2023/04/17 06:12:38;;;;;;;2.58;2.38;;;9.50;99.90;;;;;;4994113;28;20029;-77
2023/04/17 06:15:05;;;;;;;1.58;1.48;;;9.70;99.90;;;;;;4976092;28;20018;-77
2023/04/17 06:17:30;;;;;;;1.45;1.05;;;9.70;99.90;;;;;;4993021;28;20088;-79
2023/04/17 06:19:56;;;;;;;1.27;1.20;;;9.80;99.90;;;;;;4976092;28;20113;-77
2023/04/17 06:22:22;;;;;;;1.27;1.20;;;9.80;99.90;;;;;;4994040;28;20108;-78
2023/04/17 06:24:47;;;;;;;1.10;1.00;;;9.90;99.90;;;;;;4975427;28;20034;-77
2023/04/17 06:27:13;;;;;;;1.50;1.17;;;10.00;99.90;;;;;;4976197;28;20022;-80
2023/04/17 06:29:39;;;;;;;1.45;1.33;;;10.10;99.90;;;;;;4994141;28;20030;-78
2023/04/17 06:32:05;;;;;;;2.25;1.50;;;10.10;99.90;;;;;;4993286;28;20058;-77
2023/04/17 06:34:31;;;;;;;1.35;1.25;;;10.20;99.90;;;;;;4993436;28;20419;-77
2023/04/17 06:36:58;;;;;;;1.20;1.10;;;10.30;99.90;;;;;;4976049;28;20109;-77
2023/04/17 06:39:23;;;;;;;1.25;1.08;;;10.40;99.90;;;;;;4975422;28;20032;-79
2023/04/17 06:41:49;;;;;;;1.60;1.50;;;10.40;99.90;;;;;;4993362;28;20030;-77
2023/04/17 06:44:15;;;;;;;2.08;1.45;;;10.50;99.90;;;;;;4975818;28;20022;-76
2023/04/17 06:46:41;;;;;;;2.03;1.38;;;10.60;99.90;;;;;;4992919;28;20030;-76
2023/04/17 06:49:06;;;;;;;2.15;1.95;;;10.70;99.90;;;;;;4992494;28;20113;-77
2023/04/17 06:51:32;;;;;;;3.80;2.08;;;10.80;99.90;;;;;;4992995;28;20027;-78
2023/04/17 06:53:58;;;;;;;2.20;1.98;;;10.80;99.90;;;;;;4992888;28;20091;-77
2023/04/17 06:56:24;;;;;;;3.72;3.00;;;10.80;99.90;;;;;;4992753;28;20117;-78
2023/04/17 06:58:51;;;;;;;2.33;2.13;;;10.90;99.90;;;;;;4992742;28;20030;-78
2023/04/17 07:01:17;;;;;;;1.58;1.42;;;11.00;99.90;;;;;;4992702;28;20528;-77
2023/04/17 07:03:43;;;;;;;1.83;1.73;;;11.00;99.90;;;;;;4993409;28;20038;-77
2023/04/17 07:06:09;;;;;;;2.40;2.20;;;11.00;99.90;;;;;;4992427;28;20466;-77
2023/04/17 07:08:34;;;;;;;2.47;2.08;;;11.20;99.90;;;;;;4977151;28;20030;-80
2023/04/17 07:11:01;;;;;;;2.72;2.28;;;11.20;99.90;;;;;;4994320;28;20023;-76
2023/04/17 07:13:30;;;;;;;2.53;1.90;;;11.30;99.90;;;;;;4976559;28;20027;-77
2023/04/17 07:15:56;;;;;;;3.83;3.17;;;11.40;99.90;;;;;;4993831;28;20015;-77
2023/04/17 07:18:22;;;;;;;4.45;2.97;;;11.50;99.90;;;;;;4993667;28;20033;-77
2023/04/17 07:20:48;;;;;;;4.63;2.97;;;11.50;99.90;;;;;;4994227;28;20035;-78
2023/04/17 07:23:14;;;;;;;3.38;2.97;;;11.70;99.90;;;;;;4994659;28;20039;-77
2023/04/17 07:25:40;;;;;;;6.00;3.33;;;11.80;99.90;;;;;;4985802;28;20041;-78
2023/04/17 07:28:06;;;;;;;4.22;3.10;;;11.90;99.90;;;;;;4975458;28;20027;-76
2023/04/17 07:30:31;;;;;;;4.68;3.30;;;12.00;99.90;;;;;;4975382;28;20083;-78
2023/04/17 07:32:57;;;;;;;4.63;3.05;;;12.20;99.90;;;;;;4977073;28;20046;-78
2023/04/17 07:35:23;;;;;;;4.20;2.85;;;12.20;99.90;;;;;;4976396;28;20479;-78
2023/04/17 07:37:49;;;;;;;5.13;3.13;;;12.30;99.90;;;;;;4976791;28;20050;-77
2023/04/17 07:40:18;;;;;;;4.38;2.88;;;12.40;99.70;;;;;;4959539;28;20100;-78
2023/04/17 07:42:43;;;;;;;4.78;2.88;;;12.50;99.80;;;;;;4979712;28;20098;-77
2023/04/17 07:45:10;;;;;;;5.85;3.35;;;12.50;99.70;;;;;;4974652;28;20050;-79
2023/04/17 07:47:35;;;;;;;6.32;2.92;;;12.60;99.80;;;;;;4976226;28;20027;-77
2023/04/17 07:50:02;;;;;;;4.35;3.20;;;12.60;99.20;;;;;;4978360;28;20026;-78
2023/04/17 07:52:28;;;;;;;3.63;2.90;;;12.70;98.60;;;;;;4973538;28;20023;-77
2023/04/17 07:54:55;;;;;;;3.30;2.92;;;12.80;98.50;;;;;;4955176;28;20394;-76
2023/04/17 07:57:21;;;;;;;3.42;2.72;;;13.00;97.20;;;;;;4972537;28;20047;-76
2023/04/17 07:59:46;;;;;;;4.47;3.58;;;13.00;97.10;;;;;;4973055;28;20051;-77
2023/04/17 08:02:12;;;;;;;3.50;2.67;;;13.10;96.90;;;;;;4955401;28;20027;-77
2023/04/17 08:04:38;;;;;;;3.65;2.45;;;13.30;97.50;;;;;;4972536;28;20041;-78
2023/04/17 08:07:06;;;;;;;5.22;3.05;;;13.40;96.30;;;;;;4955034;28;20035;-77
2023/04/17 08:09:31;;;;;;;3.97;3.38;;;13.60;95.20;;;;;;4955077;28;20030;-77
2023/04/17 08:11:57;;;;;;;5.45;2.90;;;13.80;95.40;;;;;;4957602;28;20521;-78
2023/04/17 08:14:23;;;;;;;3.80;3.08;;;14.10;94.40;;;;;;4976631;28;20498;-78
2023/04/17 08:16:49;;;;;;;4.05;2.58;;;14.30;94.30;;;;;;4976827;28;20102;-75
2023/04/17 08:19:15;;;;;;;5.70;3.08;;;14.40;93.80;;;;;;4958700;28;20391;-78
2023/04/17 08:21:40;;;;;;;4.15;2.83;;;14.30;93.10;;;;;;4959096;28;20057;-77
2023/04/17 08:24:06;;;;;;;3.97;3.03;;;14.30;93.10;;;;;;4959269;28;20042;-76
2023/04/17 08:26:32;;;;;;;2.53;2.15;;;14.30;93.10;;;;;;4976444;28;20035;-79
2023/04/17 08:29:00;;;;;;;5.45;3.85;;;14.40;92.40;;;;;;4959039;28;20189;-77
2023/04/17 08:31:27;;;;;;;3.65;2.83;;;14.30;91.00;;;;;;4977207;28;20479;-78
2023/04/17 08:33:53;;;;;;;4.22;2.95;;;14.40;91.40;;;;;;4959083;28;20031;-78
2023/04/17 08:36:19;;;;;;;3.20;2.65;;;14.50;91.20;;;;;;4975989;28;20512;-77
2023/04/17 08:38:46;;;;;;;3.72;2.85;;;14.60;92.10;;;;;;4958934;28;20050;-78
2023/04/17 08:41:16;;;;;;;3.42;2.55;;;14.60;90.50;;;;;;4976267;28;20022;-78
2023/04/17 08:43:47;;;;;;;4.38;2.92;;;14.60;90.50;;;;;;4976304;28;20030;-78
2023/04/17 08:46:13;;;;;;;4.32;3.08;;;14.50;90.10;;;;;;4958625;28;20031;-78
2023/04/17 08:48:39;;;;;;;5.28;3.00;;;14.60;90.70;;;;;;4958225;28;20498;-79
2023/04/17 08:51:05;;;;;;;6.70;3.35;;;14.70;90.50;;;;;;4958529;28;20031;-78
2023/04/17 08:53:31;;;;;;;4.20;3.10;;;15.00;90.60;;;;;;4976181;28;20081;-79
2023/04/17 08:56:03;;;;;;;3.92;3.20;;;15.10;89.60;;;;;;4958418;28;20023;-78
2023/04/17 08:58:32;;;;;;;3.03;2.50;;;14.90;88.70;;;;;;4975478;28;20495;-79
2023/04/17 09:01:10;;;;;;;4.28;2.50;;;14.70;88.80;;;;;;4975875;28;20031;-79
2023/04/17 09:03:40;;;;;;;3.97;2.78;;;14.60;90.00;;;;;;4959413;28;20308;-78
2023/04/17 09:06:08;;;;;;;3.83;2.83;;;14.70;90.20;;;;;;4956588;28;20034;-79
2023/04/17 09:08:33;;;;;;;3.53;2.55;;;14.80;89.60;;;;;;4958055;28;20058;-78
2023/04/17 09:10:59;;;;;;;3.70;2.40;;;14.80;89.10;;;;;;4975864;28;20530;-79
2023/04/17 09:13:27;;;;;;;3.30;2.53;;;14.90;88.00;;;;;;4975679;28;20506;-78
2023/04/17 09:16:24;;;;;;;4.13;2.92;;;14.80;88.10;;;;;;4957899;28;20531;-79
2023/04/17 09:18:50;;;;;;;2.70;2.40;;;14.60;88.20;;;;;;4942625;28;20038;-78
2023/04/17 09:21:19;;;;;;;3.90;2.55;;;14.50;86.90;;;;;;4958204;28;20187;-78
2023/04/17 09:23:55;;;;;;;4.03;2.95;;;14.60;87.70;;;;;;4957587;28;20038;-82
2023/04/17 09:26:23;;;;;;;3.20;2.33;;;14.70;86.00;;;;;;4957895;28;20027;-79
2023/04/17 09:29:07;;;;;;;4.07;2.95;;;14.60;84.60;;;;;;4957948;28;20080;-79
2023/04/17 09:31:36;;;;;;;3.53;2.70;;;14.50;83.90;;;;;;4975477;28;20015;-79
2023/04/17 09:34:06;;;;;;;3.30;2.50;;;14.50;87.90;;;;;;4958166;28;20023;-78
2023/04/17 09:36:35;;;;;;;4.72;2.72;;;14.60;86.30;;;;;;4975615;28;20037;-81
2023/04/17 09:39:05;;;;;;;6.32;2.80;;;14.60;86.00;;;;;;4958053;28;20495;-80
2023/04/17 09:41:35;;;;;;;5.53;2.97;;;14.70;85.10;;;;;;4958653;28;20037;-78
2023/04/17 09:44:04;;;;;;;2.90;2.15;;;14.70;84.30;;;;;;4958177;28;20030;-79
2023/04/17 09:46:51;;;;;;;4.13;2.33;;;14.70;84.10;;;;;;4957795;28;20031;-80
2023/04/17 09:49:29;;;;;;;2.83;2.47;;;14.90;85.90;;;;;;4957830;28;20054;-80
2023/04/17 09:51:57;;;;;;;3.13;2.28;;;15.10;86.40;;;;;;4958447;28;20549;-79
2023/04/17 09:54:23;;;;;;;3.38;2.70;;;15.20;83.60;;;;;;4960098;28;20027;-81
2023/04/17 09:56:51;;;;;;;3.10;2.25;;;15.20;80.60;;;;;;4958170;28;20027;-82
2023/04/17 09:59:17;;;;;;;3.00;2.55;;;15.20;80.60;;;;;;4957708;28;20027;-79
2023/04/17 10:01:43;;;;;;;3.00;2.63;;;15.20;80.00;;;;;;4957905;28;20037;-80
2023/04/17 10:04:10;;;;;;;4.00;2.25;;;15.20;81.60;;;;;;4958038;28;20037;-79
2023/04/17 10:06:37;;;;;;;3.42;2.38;;;15.30;80.00;;;;;;4957263;28;20027;-79
2023/04/17 10:09:06;;;;;;;7.97;3.22;;;15.20;81.30;;;;;;4974495;28;20038;-78
2023/04/17 10:11:37;;;;;;;2.50;2.25;;;15.30;81.60;;;;;;4957605;28;20034;-78
2023/04/17 10:14:12;;;;;;;4.13;2.90;;;15.50;81.70;;;;;;4956463;28;20391;-79
2023/04/17 10:16:41;;;;;;;3.23;2.57;;;15.60;79.80;;;;;;4974950;28;20035;-80
2023/04/17 10:19:29;;;;;;;3.00;2.20;;;15.60;79.50;;;;;;4974463;28;20261;-79
2023/04/17 10:22:19;;;;;;;2.50;1.92;;;15.50;77.80;;;;;;4957576;28;20438;-78
2023/04/17 10:25:11;;;;;;;3.15;2.35;;;15.70;79.20;;;;;;4957423;28;20034;-79
2023/04/17 10:27:37;;;;;;;2.78;2.15;;;15.70;76.60;;;;;;4974571;28;20030;-79
2023/04/17 10:30:06;;;;;;;3.72;2.45;;;15.80;77.20;;;;;;4974850;28;20459;-79
2023/04/17 10:32:33;;;;;;;3.03;1.92;;;15.70;75.10;;;;;;4957113;28;20110;-79
2023/04/17 10:35:16;;;;;;;3.97;1.83;;;15.40;75.10;;;;;;4955974;28;20411;-80
2023/04/17 10:37:51;;;;;;;2.40;2.10;;;15.40;76.00;;;;;;4956609;28;20023;-78
2023/04/17 10:40:20;;;;;;;3.20;2.20;;;15.50;77.20;;;;;;4972994;28;20054;-79
2023/04/17 10:43:18;;;;;;;3.22;2.05;;;15.50;76.90;;;;;;4956789;28;20027;-80
2023/04/17 10:46:08;;;;;;;2.30;1.92;;;15.60;77.60;;;;;;4974382;28;20022;-78
2023/04/17 10:48:53;;;;;;;2.30;1.75;;;15.60;76.40;;;;;;4956374;28;20030;-78
2023/04/17 10:51:39;;;;;;;2.20;2.00;;;15.50;74.50;;;;;;4957214;28;20050;-80
2023/04/17 10:54:08;;;;;;;3.00;2.58;;;15.50;76.20;;;;;;4956769;28;20026;-79
2023/04/17 10:56:48;;;;;;;3.78;2.58;;;15.50;75.50;;;;;;4956678;28;20037;-79
2023/04/17 10:59:15;;;;;;;1.90;1.70;;;15.60;74.10;;;;;;4956631;28;20042;-78
2023/04/17 11:01:47;;;;;;;3.67;2.30;;;15.60;74.40;;;;;;4956638;28;20118;-78
2023/04/17 11:04:21;;;;;;;2.83;2.53;;;15.50;74.10;;;;;;4956627;28;20034;-78
2023/04/17 11:06:47;;;;;;;3.85;2.05;;;15.50;73.80;;;;;;4973836;28;20030;-79
2023/04/17 11:09:14;;;;;;;3.88;2.28;;;15.50;75.40;;;;;;4956233;28;20034;-81
2023/04/17 11:11:42;;;;;;;2.88;1.80;;;15.60;74.50;;;;;;4957578;28;20082;-81
2023/04/17 11:14:12;;;;;;;2.08;1.90;;;15.70;74.10;;;;;;4956282;28;20455;-80
2023/04/17 11:16:42;;;;;;;2.35;2.15;;;15.60;74.90;;;;;;4957077;28;20044;-80
2023/04/17 11:19:17;;;;;;;3.47;1.95;;;15.60;77.00;;;;;;4956270;28;20030;-82
2023/04/17 11:21:50;;;;;;;4.22;2.13;;;15.40;74.70;;;;;;4956050;28;20031;-80
2023/04/17 11:24:28;;;;;;;2.53;2.20;;;15.50;75.30;;;;;;4957163;28;20420;-80
2023/04/17 11:26:55;;;;;;;2.83;2.22;;;15.50;76.80;;;;;;4975629;28;20023;-81
2023/04/17 11:29:22;;;;;;;6.70;2.28;;;15.50;75.20;;;;;;4957203;28;20043;-76
2023/04/17 11:31:50;;;;;;;2.10;1.90;;;15.50;76.70;;;;;;4958548;28;20484;-75
2023/04/17 11:34:16;;;;;;;8.75;2.25;;;15.60;76.20;;;;;;4959400;28;20392;-77
2023/04/17 11:36:53;;;;;;;2.92;2.15;;;15.60;75.00;;;;;;4957506;28;20029;-80
2023/04/17 11:39:20;;;;;;;2.30;2.10;;;15.60;74.50;;;;;;4974009;28;20418;-80
2023/04/17 11:41:45;;;;;;;3.53;2.90;;;15.60;75.20;;;;;;4956711;28;20118;-80
2023/04/17 11:44:12;;;;;;;3.35;2.22;;;15.70;76.20;;;;;;4958730;28;20054;-80
2023/04/17 11:46:38;;;;;;;2.40;1.70;;;15.70;79.80;;;;;;4958306;28;20038;-80
2023/04/17 11:49:04;;;;;;;3.42;2.33;;;15.80;76.10;;;;;;4962194;28;20031;-81
2023/04/17 11:51:31;;;;;;;2.67;2.47;;;15.70;74.60;;;;;;4961096;28;20054;-80
2023/04/17 11:53:58;;;;;;;4.15;1.80;;;15.70;73.80;;;;;;4977947;28;20018;-78
2023/04/17 11:56:30;;;;;;;3.80;2.10;;;15.70;75.40;;;;;;4959991;28;20027;-77
2023/04/17 11:58:57;;;;;;;2.05;1.85;;;15.60;73.30;;;;;;4959467;28;20046;-79
2023/04/17 12:01:25;;;;;;;2.53;2.10;;;15.70;74.50;;;;;;4959853;28;20035;-79
2023/04/17 12:03:52;;;;;;;2.90;2.22;;;15.80;73.50;;;;;;4976907;28;20483;-79
2023/04/17 12:06:17;;;;;;;2.42;2.10;;;15.90;74.00;;;;;;4959476;28;20126;-78
2023/04/17 12:08:46;;;;;;;5.30;2.38;;;16.00;71.60;;;;;;4959674;28;20466;-78
2023/04/17 12:11:31;;;;;;;2.47;1.90;;;16.00;73.10;;;;;;4959861;28;20077;-79
2023/04/17 12:13:58;;;;;;;2.22;2.03;;;16.10;74.20;;;;;;4959734;28;20574;-78
2023/04/17 12:16:26;;;;;;;2.80;1.92;;;16.10;70.90;;;;;;4976638;28;20027;-78
2023/04/17 12:18:52;;;;;;;4.30;2.40;;;16.10;73.40;;;;;;4959080;28;20030;-77
2023/04/17 12:21:19;;;;;;;2.88;2.03;;;16.00;71.90;;;;;;4960073;28;20030;-77
2023/04/17 12:23:45;;;;;;;3.78;2.58;;;15.90;72.80;;;;;;4959181;28;20054;-77
2023/04/17 12:26:11;;;;;;;2.22;2.03;;;16.00;73.50;;;;;;4968222;28;20022;-80
2023/04/17 12:28:37;;;;;;;2.63;2.22;;;16.00;72.30;;;;;;4978103;28;20042;-78
2023/04/17 12:31:04;;;;;;;3.63;2.33;;;16.10;73.50;;;;;;4959501;28;20029;-76
2023/04/17 12:33:30;;;;;;;2.78;2.38;;;16.10;74.60;;;;;;4976789;28;20057;-78
2023/04/17 12:35:56;;;;;;;2.28;1.90;;;16.10;72.40;;;;;;4959747;28;20023;-78
2023/04/17 12:38:22;;;;;;;3.75;2.30;;;16.00;72.10;;;;;;4957155;28;20027;-78
2023/04/17 12:40:48;;;;;;;2.60;2.40;;;16.00;73.70;;;;;;4959530;28;20029;-78
2023/04/17 12:43:14;;;;;;;6.93;2.40;;;15.80;71.60;;;;;;4959142;28;20030;-78
2023/04/17 12:45:40;;;;;;;2.95;2.10;;;15.80;73.20;;;;;;4959632;28;20610;-79
2023/04/17 12:48:07;;;;;;;3.15;2.28;;;15.90;73.90;;;;;;4958696;28;20115;-78
2023/04/17 12:50:39;;;;;;;3.13;2.30;;;16.00;73.60;;;;;;4958919;28;20034;-78
2023/04/17 12:53:05;;;;;;;2.45;2.17;;;15.90;72.10;;;;;;4958979;28;20112;-78
2023/04/17 12:55:31;;;;;;;3.35;2.10;;;16.00;73.90;;;;;;4976001;28;20094;-77